Disclaimer

Please do not use the information listed here in-flight or in-navigation, as they are not provided to us by the airports but are provided by volunteers, so they might be outdated.

Search


Regions


Airport information page

Radio informations:
Tower (TWR) - 120.1 MHz
Approach (APP) - 120.1 MHz

Airport informations:
Latitude: 36° 56' 49.86" N
Longitude: 037° 28' 43.26" E
Elevation: 2315 feet - 706 meters
Operating hours: Remarks
Operating agency: Civil government, landing fees and diplomatic clearance may be required
Timezone: UTC+2(+3DT) - Dates notified by NOTAM
Fuel: Jet A1, without icing nhibitor.

Aviation Gasoline (AVGAS), octane unknown.

Runway information:
10R/28L - 9842 x 100 feet< - >3000 x 30 meters
10L/28R - 9839 x 148 feet< - >2999 x 45 meters

Recent METARs:
LTAJ 210020Z VRB01KT CAVOK 06/04 Q1019 NOSIG
LTAJ 210050Z 35003KT CAVOK 06/04 Q1019 NOSIG
LTAJ 210120Z VRB02KT CAVOK 07/04 Q1019 NOSIG

Airport on the map: